createdAt,value
2023-03-12T00:00:27.915Z,1.92
2023-03-12T00:02:57.249Z,1.23
2023-03-12T00:05:26.932Z,2.10
2023-03-12T00:07:53.936Z,2.39
2023-03-12T00:10:23.160Z,3.12
2023-03-12T00:12:52.377Z,2.95
2023-03-12T00:15:22.172Z,2.63
2023-03-12T00:17:48.962Z,2.76
2023-03-12T00:20:15.995Z,2.30
2023-03-12T00:22:42.741Z,2.25
2023-03-12T00:25:17.328Z,2.89
2023-03-12T00:27:46.539Z,2.88
2023-03-12T00:30:16.327Z,2.90
2023-03-12T00:32:43.093Z,1.91
2023-03-12T00:35:10.049Z,2.41
2023-03-12T00:37:39.153Z,2.69
2023-03-12T00:40:10.704Z,2.48
2023-03-12T00:42:42.212Z,2.59
2023-03-12T00:45:09.682Z,2.03
2023-03-12T00:47:38.749Z,2.38
2023-03-12T00:50:06.041Z,2.25
2023-03-12T00:52:32.928Z,2.98
2023-03-12T00:55:02.141Z,3.06
2023-03-12T00:57:29.153Z,2.73
2023-03-12T00:59:55.889Z,2.44
2023-03-12T01:02:22.744Z,3.17
2023-03-12T01:04:56.659Z,2.57
2023-03-12T01:07:23.805Z,3.41
2023-03-12T01:09:52.997Z,3.25
2023-03-12T01:12:22.094Z,2.95
2023-03-12T01:14:48.900Z,2.95
2023-03-12T01:17:15.776Z,3.07
2023-03-12T01:19:42.547Z,2.58
2023-03-12T01:22:13.816Z,2.78
2023-03-12T01:24:42.903Z,2.15
2023-03-12T01:27:12.035Z,3.20
2023-03-12T01:29:41.291Z,3.16
2023-03-12T01:32:10.512Z,2.66
2023-03-12T01:34:39.481Z,2.58
2023-03-12T01:37:08.805Z,3.02
2023-03-12T01:39:40.409Z,2.49
2023-03-12T01:42:07.753Z,2.65
2023-03-12T01:44:57.202Z,3.29
2023-03-12T01:47:24.871Z,2.29
2023-03-12T01:49:53.549Z,2.02
2023-03-12T01:52:30.266Z,2.06
2023-03-12T01:55:02.875Z,3.25
2023-03-12T01:57:34.680Z,3.03
2023-03-12T02:00:13.936Z,3.16
2023-03-12T02:02:42.065Z,3.14
2023-03-12T02:05:14.631Z,2.79
2023-03-12T02:07:41.940Z,2.04
2023-03-12T02:10:11.528Z,2.55
2023-03-12T02:12:43.362Z,2.50
2023-03-12T02:15:11.216Z,1.50
2023-03-12T02:17:43.663Z,1.99
2023-03-12T02:20:32.582Z,2.09
2023-03-12T02:23:21.663Z,2.43
2023-03-12T02:25:52.057Z,2.66
2023-03-12T02:28:23.741Z,2.63
2023-03-12T02:30:53.187Z,2.75
2023-03-12T02:33:20.270Z,2.85
2023-03-12T02:35:49.244Z,2.96
2023-03-12T02:38:31.328Z,2.96
2023-03-12T02:41:01.313Z,2.91
2023-03-12T02:43:28.205Z,2.80
2023-03-12T02:45:56.144Z,2.77
2023-03-12T02:48:25.798Z,2.55
2023-03-12T02:50:56.908Z,2.67
2023-03-12T02:53:28.830Z,2.52
2023-03-12T02:55:55.765Z,2.52
2023-03-12T02:58:24.717Z,2.36
2023-03-12T03:00:55.174Z,2.25
2023-03-12T03:03:26.956Z,2.40
2023-03-12T03:05:56.553Z,2.49
2023-03-12T03:08:29.105Z,2.41
2023-03-12T03:10:55.796Z,2.38
2023-03-12T03:13:22.823Z,2.42
2023-03-12T03:15:49.563Z,2.53
2023-03-12T03:18:16.806Z,2.52
2023-03-12T03:20:44.892Z,2.43
2023-03-12T03:23:11.548Z,2.41
2023-03-12T03:25:39.311Z,2.36
2023-03-12T03:28:16.167Z,2.23
2023-03-12T03:30:45.678Z,2.02
2023-03-12T03:33:12.632Z,1.94
2023-03-12T03:35:41.948Z,1.87
2023-03-12T03:38:12.118Z,1.95
2023-03-12T03:40:38.950Z,1.90
2023-03-12T03:43:05.574Z,1.76
2023-03-12T03:45:32.437Z,1.70
2023-03-12T03:47:59.544Z,1.70
2023-03-12T03:50:26.421Z,1.77
2023-03-12T03:52:53.662Z,1.84
2023-03-12T03:55:20.765Z,1.87
2023-03-12T03:57:48.038Z,1.89
2023-03-12T04:00:18.079Z,1.94
2023-03-12T04:02:47.841Z,1.96
2023-03-12T04:05:19.685Z,1.88
2023-03-12T04:07:48.287Z,1.77
2023-03-12T04:10:18.373Z,1.81
2023-03-12T04:12:45.521Z,1.84
2023-03-12T04:15:12.249Z,1.89
2023-03-12T04:17:39.399Z,1.93
2023-03-12T04:20:08.757Z,1.89
2023-03-12T04:22:42.242Z,1.69
2023-03-12T04:25:09.849Z,1.76
2023-03-12T04:27:38.955Z,1.70
2023-03-12T04:30:08.698Z,1.79
2023-03-12T04:32:37.550Z,1.86
2023-03-12T04:35:04.548Z,1.83
2023-03-12T04:37:35.905Z,1.73
2023-03-12T04:40:04.823Z,1.68
2023-03-12T04:42:33.905Z,1.75
2023-03-12T04:45:00.567Z,1.74
2023-03-12T04:47:27.266Z,1.67
2023-03-12T04:49:53.950Z,1.69
2023-03-12T04:52:23.230Z,1.79
2023-03-12T04:54:49.918Z,1.83
2023-03-12T04:57:16.714Z,1.88
2023-03-12T04:59:43.480Z,1.81
2023-03-12T05:02:13.061Z,1.89
2023-03-12T05:04:44.880Z,1.98
2023-03-12T05:07:13.879Z,1.96
2023-03-12T05:09:40.819Z,2.05
2023-03-12T05:12:07.746Z,2.02
2023-03-12T05:14:39.573Z,2.01
2023-03-12T05:17:07.261Z,2.08
2023-03-12T05:19:38.358Z,2.12
2023-03-12T05:22:07.258Z,2.13
2023-03-12T05:24:34.027Z,2.17
2023-03-12T05:27:01.765Z,2.17
2023-03-12T05:29:35.321Z,2.18
2023-03-12T05:32:02.684Z,2.15
2023-03-12T05:34:32.089Z,2.14
2023-03-12T05:36:59.529Z,2.09
2023-03-12T05:39:27.827Z,2.10
2023-03-12T05:42:01.132Z,2.23
2023-03-12T05:44:30.297Z,2.35
2023-03-12T05:47:00.164Z,2.45
2023-03-12T05:49:27.351Z,2.44
2023-03-12T05:51:55.551Z,2.50
2023-03-12T05:54:26.594Z,2.47
2023-03-12T05:56:53.319Z,2.44
2023-03-12T05:59:29.538Z,2.45
2023-03-12T06:01:56.943Z,2.47
2023-03-12T06:04:23.912Z,2.51
2023-03-12T06:06:52.316Z,2.53
2023-03-12T06:09:19.121Z,2.66
2023-03-12T06:11:45.933Z,2.76
2023-03-12T06:14:15.077Z,2.85
2023-03-12T06:16:41.976Z,2.80
2023-03-12T06:19:08.868Z,2.86
2023-03-12T06:21:36.036Z,3.05
2023-03-12T06:24:04.818Z,3.11
2023-03-12T06:26:44.909Z,3.26
2023-03-12T06:29:14.014Z,3.34
2023-03-12T06:31:45.619Z,3.32
2023-03-12T06:34:12.658Z,3.38
2023-03-12T06:36:39.508Z,3.48
2023-03-12T06:39:06.550Z,3.59
2023-03-12T06:41:35.765Z,3.74
2023-03-12T06:44:06.150Z,3.59
2023-03-12T06:46:33.399Z,3.61
2023-03-12T06:49:02.755Z,3.67
2023-03-12T06:51:29.461Z,3.63
2023-03-12T06:53:56.325Z,3.64
2023-03-12T06:56:22.997Z,3.71
2023-03-12T06:58:51.927Z,3.62
2023-03-12T07:01:18.587Z,3.73
2023-03-12T07:03:45.304Z,3.86
2023-03-12T07:06:15.912Z,3.95
2023-03-12T07:08:45.021Z,4.05
2023-03-12T07:11:14.072Z,4.10
2023-03-12T07:13:43.118Z,4.10
2023-03-12T07:16:10.143Z,4.33
2023-03-12T07:18:37.275Z,4.18
2023-03-12T07:21:04.064Z,4.22
2023-03-12T07:23:30.632Z,4.13
2023-03-12T07:26:00.482Z,4.29
2023-03-12T07:28:27.159Z,4.43
2023-03-12T07:30:53.991Z,4.55
2023-03-12T07:33:21.487Z,4.73
2023-03-12T07:35:51.970Z,4.56
2023-03-12T07:38:21.537Z,4.54
2023-03-12T07:40:54.974Z,4.72
2023-03-12T07:43:22.027Z,4.90
2023-03-12T07:45:51.212Z,5.03
2023-03-12T07:48:19.979Z,5.12
2023-03-12T07:50:47.012Z,5.18
2023-03-12T07:53:13.717Z,5.09
2023-03-12T07:55:40.494Z,5.04
2023-03-12T07:58:09.767Z,5.12
2023-03-12T08:00:38.924Z,4.97
2023-03-12T08:03:06.196Z,4.95
2023-03-12T08:05:33.073Z,5.08
2023-03-12T08:07:59.768Z,4.92
2023-03-12T08:10:26.742Z,4.98
2023-03-12T08:12:55.970Z,4.95
2023-03-12T08:15:26.129Z,5.01
2023-03-12T08:17:53.341Z,5.20
2023-03-12T08:20:22.899Z,5.19
2023-03-12T08:22:49.941Z,5.22
2023-03-12T08:25:18.712Z,5.36
2023-03-12T08:27:47.809Z,5.52
2023-03-12T08:30:17.048Z,5.62
2023-03-12T08:32:43.791Z,5.73
2023-03-12T08:35:11.444Z,6.01
2023-03-12T08:37:41.840Z,6.28
2023-03-12T08:40:15.459Z,6.39
2023-03-12T08:42:42.637Z,6.50
2023-03-12T08:45:10.467Z,5.91
2023-03-12T08:47:39.977Z,5.70
2023-03-12T08:50:09.609Z,5.91
2023-03-12T08:52:36.337Z,6.23
2023-03-12T08:55:08.100Z,6.39
2023-03-12T08:57:37.499Z,6.35
2023-03-12T09:00:11.400Z,6.65
2023-03-12T09:02:38.619Z,7.12
2023-03-12T09:05:06.026Z,7.28
2023-03-12T09:07:37.571Z,7.58
2023-03-12T09:10:08.882Z,7.83
2023-03-12T09:12:35.640Z,7.85
2023-03-12T09:15:05.341Z,7.69
2023-03-12T09:17:34.779Z,7.72
2023-03-12T09:20:01.529Z,7.96
2023-03-12T09:22:32.357Z,8.25
2023-03-12T09:24:58.941Z,8.32
2023-03-12T09:27:25.712Z,8.51
2023-03-12T09:30:00.340Z,8.69
2023-03-12T09:32:29.724Z,8.64
2023-03-12T09:34:59.354Z,8.88
2023-03-12T09:37:25.960Z,8.92
2023-03-12T09:39:52.736Z,8.86
2023-03-12T09:42:31.224Z,9.18
2023-03-12T09:44:57.813Z,9.31
2023-03-12T09:47:27.302Z,9.13
2023-03-12T09:50:02.357Z,8.86
2023-03-12T09:52:44.630Z,9.00
2023-03-12T09:55:15.206Z,8.64
2023-03-12T09:57:44.631Z,8.98
2023-03-12T10:00:12.410Z,9.27
2023-03-12T10:02:39.701Z,9.58
2023-03-12T10:05:09.553Z,9.91
2023-03-12T10:07:38.089Z,10.17
2023-03-12T10:10:10.225Z,9.94
2023-03-12T10:12:55.190Z,9.67
2023-03-12T10:15:31.002Z,9.73
2023-03-12T10:18:00.244Z,9.55
2023-03-12T10:20:42.179Z,9.37
2023-03-12T10:23:09.238Z,9.69
2023-03-12T10:25:41.925Z,9.90
2023-03-12T10:28:16.188Z,10.14
2023-03-12T10:30:43.498Z,10.33
2023-03-12T10:33:14.065Z,10.59
2023-03-12T10:35:41.772Z,10.74
2023-03-12T10:38:31.654Z,11.05
2023-03-12T10:40:58.268Z,11.26
2023-03-12T10:43:27.414Z,11.32
2023-03-12T10:46:02.404Z,11.72
2023-03-12T10:48:29.038Z,11.97
2023-03-12T10:51:06.236Z,12.11
2023-03-12T10:53:35.752Z,12.16
2023-03-12T10:56:11.192Z,12.43
2023-03-12T10:58:41.632Z,12.86
2023-03-12T11:01:21.998Z,13.15
2023-03-12T11:03:54.403Z,13.56
2023-03-12T11:06:27.600Z,13.09
2023-03-12T11:09:16.296Z,13.09
2023-03-12T11:11:45.312Z,12.41
2023-03-12T11:14:18.274Z,12.34
2023-03-12T11:16:47.500Z,12.08
2023-03-12T11:19:35.519Z,12.20
2023-03-12T11:22:05.552Z,12.63
2023-03-12T11:24:33.475Z,11.18
2023-03-12T11:27:05.969Z,11.06
2023-03-12T11:29:41.876Z,11.52
2023-03-12T11:32:24.090Z,10.14
2023-03-12T11:34:51.044Z,11.78
2023-03-12T11:37:20.787Z,11.56
2023-03-12T11:39:50.175Z,11.80
2023-03-12T11:42:26.040Z,12.04
2023-03-12T11:45:18.413Z,11.90
2023-03-12T11:47:45.567Z,12.51
2023-03-12T11:50:17.685Z,13.27
2023-03-12T11:52:44.249Z,13.68
2023-03-12T11:55:16.244Z,14.42
2023-03-12T11:57:43.157Z,14.56
2023-03-12T12:00:16.057Z,13.76
2023-03-12T12:03:11.265Z,14.12
2023-03-12T12:05:37.905Z,13.74
2023-03-12T12:08:10.426Z,13.45
2023-03-12T12:10:43.195Z,12.60
2023-03-12T12:13:24.411Z,12.85
2023-03-12T12:16:08.302Z,13.00
2023-03-12T12:18:53.326Z,13.57
2023-03-12T12:21:29.221Z,13.80
2023-03-12T12:24:01.372Z,13.95
2023-03-12T12:26:49.464Z,14.24
2023-03-12T12:29:16.161Z,14.33
2023-03-12T12:31:56.347Z,14.71
2023-03-12T12:34:23.089Z,15.16
2023-03-12T12:36:51.928Z,15.58
2023-03-12T12:39:32.957Z,15.42
2023-03-12T12:42:10.575Z,15.74
2023-03-12T12:44:48.062Z,16.65
2023-03-12T12:47:34.764Z,17.08
2023-03-12T12:50:04.218Z,17.73
2023-03-12T12:52:35.303Z,17.80
2023-03-12T12:55:22.077Z,18.28
2023-03-12T12:57:51.826Z,18.43
2023-03-12T13:00:27.772Z,18.63
2023-03-12T13:02:55.398Z,18.65
2023-03-12T13:05:22.042Z,19.03
2023-03-12T13:07:50.927Z,19.36
2023-03-12T13:10:32.296Z,19.26
2023-03-12T13:12:59.170Z,19.68
2023-03-12T13:15:28.899Z,19.61
2023-03-12T13:17:55.723Z,19.37
2023-03-12T13:20:23.183Z,19.93
2023-03-12T13:23:01.027Z,20.71
2023-03-12T13:25:30.928Z,21.37
2023-03-12T13:28:23.284Z,21.81
2023-03-12T13:30:52.614Z,22.21
2023-03-12T13:33:21.795Z,21.74
2023-03-12T13:36:23.892Z,21.51
2023-03-12T13:38:59.876Z,21.92
2023-03-12T13:41:36.076Z,21.87
2023-03-12T13:44:21.475Z,21.46
2023-03-12T13:46:48.158Z,21.99
2023-03-12T13:49:15.451Z,22.45
2023-03-12T13:51:46.265Z,22.95
2023-03-12T13:54:18.743Z,23.64
2023-03-12T13:56:47.046Z,23.73
2023-03-12T13:59:18.022Z,24.11
2023-03-12T14:01:48.323Z,24.63
2023-03-12T14:04:19.113Z,25.04
2023-03-12T14:06:48.887Z,25.15
2023-03-12T14:09:24.622Z,25.75
2023-03-12T14:11:57.159Z,25.90
2023-03-12T14:14:29.851Z,25.10
2023-03-12T14:16:57.056Z,24.79
2023-03-12T14:19:24.558Z,25.64
2023-03-12T14:21:51.176Z,27.14
2023-03-12T14:24:20.214Z,28.04
2023-03-12T14:26:46.964Z,26.64
2023-03-12T14:29:19.046Z,24.83
2023-03-12T14:31:48.098Z,24.27
2023-03-12T14:34:20.505Z,23.81
2023-03-12T14:36:56.257Z,24.58
2023-03-12T14:39:22.814Z,24.04
2023-03-12T14:41:54.522Z,22.44
2023-03-12T14:44:22.960Z,20.90
2023-03-12T14:46:59.505Z,21.52
2023-03-12T14:49:26.742Z,22.46
2023-03-12T14:51:56.055Z,23.78
2023-03-12T14:54:27.112Z,25.51
2023-03-12T14:56:56.458Z,26.67
2023-03-12T14:59:31.670Z,26.24
2023-03-12T15:02:20.968Z,25.68
2023-03-12T15:04:51.281Z,24.97
2023-03-12T15:07:31.878Z,24.29
2023-03-12T15:10:01.014Z,23.25
2023-03-12T15:12:31.868Z,21.88
2023-03-12T15:15:04.382Z,21.84
2023-03-12T15:17:33.774Z,22.06
2023-03-12T15:20:01.733Z,22.12
2023-03-12T15:22:28.282Z,21.03
2023-03-12T15:24:54.934Z,20.98
2023-03-12T15:27:21.566Z,20.84
2023-03-12T15:29:48.159Z,21.23
2023-03-12T15:32:18.055Z,20.49
2023-03-12T15:34:48.122Z,18.67
2023-03-12T15:37:32.543Z,18.39
2023-03-12T15:40:02.130Z,18.58
2023-03-12T15:42:28.924Z,18.54
2023-03-12T15:44:58.958Z,18.55
2023-03-12T15:47:27.146Z,18.75
2023-03-12T15:49:55.465Z,18.04
2023-03-12T15:52:27.504Z,16.85
2023-03-12T15:55:03.553Z,17.61
2023-03-12T15:57:34.118Z,17.53
2023-03-12T16:00:12.342Z,15.28
2023-03-12T16:02:40.254Z,13.37
2023-03-12T16:05:08.189Z,11.85
2023-03-12T16:07:37.481Z,11.09
2023-03-12T16:10:04.569Z,10.95
2023-03-12T16:12:31.196Z,10.77
2023-03-12T16:14:57.793Z,10.58
2023-03-12T16:17:24.502Z,10.29
2023-03-12T16:19:51.037Z,10.11
2023-03-12T16:22:18.313Z,9.80
2023-03-12T16:24:44.891Z,9.95
2023-03-12T16:27:14.049Z,9.80
2023-03-12T16:29:42.381Z,9.59
2023-03-12T16:32:15.697Z,9.40
2023-03-12T16:34:44.926Z,9.13
2023-03-12T16:37:12.129Z,9.02
2023-03-12T16:39:39.031Z,9.12
2023-03-12T16:42:18.761Z,9.12
2023-03-12T16:44:46.372Z,8.87
2023-03-12T16:47:16.173Z,8.84
2023-03-12T16:49:43.382Z,8.65
2023-03-12T16:52:20.253Z,8.55
2023-03-12T16:54:48.513Z,8.65
2023-03-12T16:57:35.403Z,8.63
2023-03-12T17:00:02.392Z,8.56
2023-03-12T17:02:31.670Z,8.81
2023-03-12T17:04:58.692Z,8.70
2023-03-12T17:07:25.351Z,8.57
2023-03-12T17:09:54.419Z,8.51
2023-03-12T17:12:23.169Z,8.48
2023-03-12T17:14:50.090Z,8.38
2023-03-12T17:17:19.825Z,8.26
2023-03-12T17:19:49.453Z,8.14
2023-03-12T17:22:16.278Z,8.06
2023-03-12T17:24:44.908Z,8.09
2023-03-12T17:27:11.510Z,8.10
2023-03-12T17:29:38.222Z,8.16
2023-03-12T17:32:04.925Z,8.15
2023-03-12T17:34:33.910Z,8.13
2023-03-12T17:37:01.653Z,8.15
2023-03-12T17:39:30.774Z,8.03
2023-03-12T17:41:57.833Z,8.01
2023-03-12T17:44:32.843Z,8.00
2023-03-12T17:47:00.034Z,8.01
2023-03-12T17:49:27.540Z,8.14
2023-03-12T17:51:54.208Z,8.19
2023-03-12T17:54:22.122Z,8.27
2023-03-12T17:56:48.960Z,8.25
2023-03-12T17:59:15.627Z,8.45
2023-03-12T18:01:42.295Z,8.45
2023-03-12T18:04:08.889Z,8.25
2023-03-12T18:06:41.041Z,8.13
2023-03-12T18:09:07.701Z,8.15
2023-03-12T18:11:37.271Z,8.10
2023-03-12T18:14:08.152Z,8.04
2023-03-12T18:16:34.818Z,8.12
2023-03-12T18:19:06.288Z,8.32
2023-03-12T18:21:35.232Z,8.41
2023-03-12T18:24:11.730Z,8.43
2023-03-12T18:26:40.329Z,8.33
2023-03-12T18:29:07.020Z,8.26
2023-03-12T18:31:36.106Z,8.38
2023-03-12T18:34:03.134Z,8.37
2023-03-12T18:36:30.052Z,8.38
2023-03-12T18:38:59.486Z,8.29
2023-03-12T18:41:30.426Z,8.11
2023-03-12T18:43:59.624Z,7.90
2023-03-12T18:46:26.235Z,7.78
2023-03-12T18:48:55.310Z,7.76
2023-03-12T18:51:22.029Z,7.58
2023-03-12T18:53:48.693Z,7.48
2023-03-12T18:56:15.505Z,7.40
2023-03-12T18:58:42.098Z,7.37
2023-03-12T19:01:13.051Z,7.20
2023-03-12T19:03:42.589Z,7.15
2023-03-12T19:06:12.257Z,7.23
2023-03-12T19:08:39.084Z,7.19
2023-03-12T19:11:06.534Z,7.18
2023-03-12T19:13:33.491Z,7.05
2023-03-12T19:16:00.794Z,7.12
2023-03-12T19:18:30.512Z,7.26
2023-03-12T19:20:57.369Z,7.33
2023-03-12T19:23:26.996Z,7.34
2023-03-12T19:25:56.063Z,7.38
2023-03-12T19:28:26.340Z,7.36
2023-03-12T19:30:58.662Z,7.32
2023-03-12T19:33:31.508Z,7.46
2023-03-12T19:36:03.048Z,7.54
2023-03-12T19:38:35.394Z,7.42
2023-03-12T19:41:02.053Z,7.41
2023-03-12T19:43:31.225Z,7.42
2023-03-12T19:46:00.252Z,7.41
2023-03-12T19:48:27.016Z,7.22
2023-03-12T19:50:54.848Z,7.04
2023-03-12T19:53:21.742Z,6.93
2023-03-12T19:55:48.874Z,6.76
2023-03-12T19:58:15.953Z,6.66
2023-03-12T20:00:42.728Z,6.71
2023-03-12T20:03:12.189Z,6.90
2023-03-12T20:05:38.884Z,7.04
2023-03-12T20:08:05.731Z,7.07
2023-03-12T20:10:35.596Z,7.11
2023-03-12T20:13:02.187Z,7.01
2023-03-12T20:15:28.978Z,6.96
2023-03-12T20:17:58.332Z,7.05
2023-03-12T20:20:25.484Z,6.94
2023-03-12T20:22:54.795Z,6.89
2023-03-12T20:25:21.537Z,7.01
2023-03-12T20:27:48.336Z,6.95
2023-03-12T20:30:17.466Z,6.80
2023-03-12T20:32:47.173Z,6.67
2023-03-12T20:35:16.287Z,6.60
2023-03-12T20:37:43.153Z,6.67
2023-03-12T20:40:10.149Z,6.81
2023-03-12T20:42:36.850Z,6.78
2023-03-12T20:45:06.376Z,6.78
2023-03-12T20:47:34.632Z,6.69
2023-03-12T20:50:03.465Z,6.71
2023-03-12T20:52:30.221Z,6.62
2023-03-12T20:54:59.126Z,6.55
2023-03-12T20:57:28.834Z,6.74
2023-03-12T20:59:55.499Z,6.96
2023-03-12T21:02:22.601Z,6.98
2023-03-12T21:04:53.583Z,6.82
2023-03-12T21:07:20.292Z,6.73
2023-03-12T21:09:49.381Z,6.83
2023-03-12T21:12:16.382Z,6.87
2023-03-12T21:14:47.482Z,7.00
2023-03-12T21:17:16.427Z,7.13
2023-03-12T21:19:43.334Z,7.15
2023-03-12T21:22:10.291Z,7.13
2023-03-12T21:24:37.133Z,6.99
2023-03-12T21:27:06.195Z,6.92
2023-03-12T21:29:34.272Z,7.09
2023-03-12T21:32:00.936Z,6.92
2023-03-12T21:34:30.584Z,6.84
2023-03-12T21:36:57.457Z,6.81
2023-03-12T21:39:27.605Z,6.89
2023-03-12T21:41:54.457Z,6.87
2023-03-12T21:44:23.448Z,6.87
2023-03-12T21:46:50.168Z,6.75
2023-03-12T21:49:19.625Z,6.64
2023-03-12T21:51:46.331Z,6.73
2023-03-12T21:54:12.942Z,6.72
2023-03-12T21:56:42.185Z,6.54
2023-03-12T21:59:08.940Z,6.54
2023-03-12T22:01:37.928Z,6.56
2023-03-12T22:04:07.010Z,6.49
2023-03-12T22:06:33.616Z,6.59
2023-03-12T22:09:00.383Z,6.75
2023-03-12T22:11:29.508Z,6.75
2023-03-12T22:13:56.229Z,6.64
2023-03-12T22:16:22.936Z,6.63
2023-03-12T22:18:52.033Z,6.75
2023-03-12T22:21:19.545Z,6.67
2023-03-12T22:23:50.986Z,6.67
2023-03-12T22:26:23.924Z,6.58
2023-03-12T22:28:53.410Z,6.46
2023-03-12T22:31:22.949Z,6.31
2023-03-12T22:33:49.695Z,6.28
2023-03-12T22:36:16.778Z,6.27
2023-03-12T22:38:43.536Z,6.45
2023-03-12T22:41:13.350Z,6.44
2023-03-12T22:43:42.427Z,6.55
2023-03-12T22:46:09.429Z,6.55
2023-03-12T22:48:36.904Z,6.52
2023-03-12T22:51:06.573Z,6.35
2023-03-12T22:53:33.399Z,6.28
2023-03-12T22:56:01.039Z,6.43
2023-03-12T22:58:28.030Z,6.42
2023-03-12T23:01:00.483Z,6.41
2023-03-12T23:03:35.497Z,6.40
2023-03-12T23:06:10.725Z,6.43
2023-03-12T23:08:37.631Z,6.54
2023-03-12T23:11:09.981Z,6.54
2023-03-12T23:13:49.858Z,6.42
2023-03-12T23:16:25.609Z,6.42
2023-03-12T23:18:57.204Z,6.47
2023-03-12T23:21:27.394Z,6.54
2023-03-12T23:23:56.549Z,6.59
2023-03-12T23:26:29.537Z,6.69
2023-03-12T23:29:04.404Z,6.68
2023-03-12T23:31:34.643Z,6.80
2023-03-12T23:34:09.540Z,6.83
2023-03-12T23:36:39.209Z,6.78
2023-03-12T23:39:21.354Z,6.73
2023-03-12T23:41:53.264Z,6.64
2023-03-12T23:44:20.174Z,6.58
2023-03-12T23:46:49.973Z,6.62
2023-03-12T23:49:19.098Z,6.66
2023-03-12T23:51:50.354Z,6.60
2023-03-12T23:54:16.956Z,6.77
2023-03-12T23:56:43.692Z,6.88
2023-03-12T23:59:22.310Z,6.84
